Time;durP1;ratioP1;P1;durP2;ratioP2;P2;SDS_P1;SDS_P2;PMS_P1;PMS_P2;Temp;Humidity;BMP_temperature;BMP_pressure;BME280_temperature;BME280_humidity;BME280_pressure;Samples;Min_cycle;Max_cycle;Signal;HPM_P1;HPM_P2
2021/01/27 00:01:39;;;;;;;2.78;2.22;;;;;;;22.81;36.97;93880.69;4933627;29;20421;-74
2021/01/27 00:04:05;;;;;;;3.58;2.45;;;;;;;22.83;37.17;93880.16;4931481;29;20056;-72
2021/01/27 00:06:30;;;;;;;3.00;2.40;;;;;;;22.84;37.35;93873.44;4933190;29;20485;-74
2021/01/27 00:08:56;;;;;;;2.88;2.20;;;;;;;22.75;37.41;93861.03;4933191;29;20493;-74
2021/01/27 00:11:21;;;;;;;2.65;2.20;;;;;;;22.86;37.16;93879.09;4931861;29;20023;-73
2021/01/27 00:13:46;;;;;;;3.03;2.30;;;;;;;22.85;37.18;93880.34;4933047;29;20028;-74
2021/01/27 00:16:12;;;;;;;3.35;2.38;;;;;;;22.81;37.29;93877.22;4931822;29;20095;-73
2021/01/27 00:18:37;;;;;;;3.13;2.28;;;;;;;22.85;37.10;93880.34;4931640;29;20031;-73
2021/01/27 00:21:03;;;;;;;3.15;2.70;;;;;;;22.83;37.43;93880.16;4932847;29;20039;-74
2021/01/27 00:23:28;;;;;;;2.95;2.40;;;;;;;22.81;37.42;93882.66;4932807;29;20115;-73
2021/01/27 00:25:54;;;;;;;2.90;2.20;;;;;;;22.71;37.65;93882.41;4933470;29;20557;-73
2021/01/27 00:28:19;;;;;;;3.78;2.47;;;;;;;22.59;37.58;93888.66;4933179;29;20110;-73
2021/01/27 00:30:45;;;;;;;3.50;2.30;;;;;;;22.58;37.56;93881.75;4932762;29;20039;-73
2021/01/27 00:33:12;;;;;;;2.80;2.03;;;;;;;22.62;37.42;93887.59;4935682;29;20032;-73
2021/01/27 00:35:40;;;;;;;3.35;2.58;;;;;;;22.68;37.58;93890.91;4937576;29;20043;-73
2021/01/27 00:38:12;;;;;;;3.45;2.50;;;;;;;22.62;37.49;93877.44;4936574;29;20031;-73
2021/01/27 00:40:38;;;;;;;3.08;2.20;;;;;;;22.71;37.31;93884.41;4936380;29;20034;-74
2021/01/27 00:43:03;;;;;;;3.17;2.10;;;;;;;22.71;37.32;93879.69;4934682;29;20031;-74
2021/01/27 00:45:29;;;;;;;3.25;2.10;;;;;;;22.68;37.36;93880.03;4932055;29;20074;-74
2021/01/27 00:47:54;;;;;;;3.35;2.15;;;;;;;22.69;37.39;93886.91;4932770;29;20023;-74
2021/01/27 00:50:20;;;;;;;2.58;2.10;;;;;;;22.62;37.51;93876.72;4932494;29;20032;-74
2021/01/27 00:52:45;;;;;;;2.95;2.40;;;;;;;22.67;37.48;93873.13;4932430;29;20028;-74
2021/01/27 00:55:16;;;;;;;3.28;2.05;;;;;;;22.69;37.20;93870.59;4932165;29;20038;-74
2021/01/27 00:57:42;;;;;;;2.88;2.10;;;;;;;22.68;37.50;93874.59;4932307;29;20035;-74
2021/01/27 01:00:30;;;;;;;2.88;2.40;;;;;;;22.66;37.41;93877.09;4931912;29;20034;-73
2021/01/27 01:02:56;;;;;;;3.20;2.00;;;;;;;22.67;37.16;93873.84;4931007;29;20106;-73
2021/01/27 01:05:26;;;;;;;2.78;1.92;;;;;;;22.69;37.38;93876.03;4930982;29;20040;-74
2021/01/27 01:07:52;;;;;;;3.30;2.30;;;;;;;22.53;37.55;93863.56;4930892;29;20074;-73
2021/01/27 01:10:23;;;;;;;4.72;2.40;;;;;;;22.64;37.45;93874.19;4930975;29;20032;-74
2021/01/27 01:12:48;;;;;;;3.13;2.20;;;;;;;22.58;37.43;93870.88;4932023;29;20103;-74
2021/01/27 01:15:14;;;;;;;2.35;1.90;;;;;;;22.40;37.68;93869.06;4930650;29;20465;-74
2021/01/27 01:17:39;;;;;;;2.75;2.20;;;;;;;22.47;37.54;93882.03;4931981;29;20035;-74
2021/01/27 01:20:06;;;;;;;2.53;1.92;;;;;;;22.50;37.80;93878.22;4932105;29;20023;-73
2021/01/27 01:22:32;;;;;;;2.80;1.90;;;;;;;22.45;37.41;93863.50;4931892;29;20402;-74
2021/01/27 01:24:58;;;;;;;2.80;2.00;;;;;;;22.50;37.46;93870.06;4914347;29;20109;-74
2021/01/27 01:27:23;;;;;;;3.03;2.25;;;;;;;22.58;37.29;93870.88;4931871;29;20123;-74
2021/01/27 01:29:49;;;;;;;3.40;2.00;;;;;;;22.60;37.36;93879.97;4931974;29;20055;-74
2021/01/27 01:32:14;;;;;;;3.35;2.22;;;;;;;22.61;37.44;93875.25;4931936;29;20485;-74
2021/01/27 01:34:40;;;;;;;4.05;2.45;;;;;;;22.60;37.38;93868.34;4930191;29;20481;-74
2021/01/27 01:37:05;;;;;;;2.83;2.22;;;;;;;22.57;37.50;93858.50;4931846;29;20489;-74
2021/01/27 01:39:30;;;;;;;3.22;2.30;;;;;;;22.59;37.19;93845.13;4931934;29;20034;-74
2021/01/27 01:41:56;;;;;;;2.67;2.20;;;;;;;22.58;37.56;93854.53;4946584;29;20528;-74
2021/01/27 01:44:21;;;;;;;2.83;2.10;;;;;;;22.58;37.52;93844.38;4935040;29;20091;-74
2021/01/27 01:46:47;;;;;;;2.60;2.00;;;;;;;22.60;37.37;93849.28;4935532;29;20023;-74
2021/01/27 01:49:16;;;;;;;3.00;2.25;;;;;;;22.50;37.45;93832.00;4935673;29;20485;-74
2021/01/27 01:51:51;;;;;;;3.15;2.10;;;;;;;22.59;37.46;93850.56;4935417;29;20062;-74
2021/01/27 01:54:25;;;;;;;3.25;2.30;;;;;;;22.53;37.27;93847.25;4934051;29;20043;-74
2021/01/27 01:56:55;;;;;;;2.90;2.10;;;;;;;22.44;37.57;93839.56;4935625;29;20428;-74
2021/01/27 01:59:21;;;;;;;3.13;2.05;;;;;;;22.37;37.56;93834.75;4934177;29;20027;-73
2021/01/27 02:01:48;;;;;;;3.03;2.30;;;;;;;22.42;37.48;93837.38;4935463;29;20412;-74
2021/01/27 02:04:13;;;;;;;3.17;2.28;;;;;;;22.43;37.66;93832.66;4935343;29;20056;-74
2021/01/27 02:06:39;;;;;;;2.58;2.05;;;;;;;22.44;37.50;93839.56;4935376;29;20031;-74
2021/01/27 02:09:05;;;;;;;3.55;2.20;;;;;;;22.49;37.36;93846.84;4934098;29;20031;-74
2021/01/27 02:11:58;;;;;;;2.50;1.90;;;;;;;22.50;37.56;93848.31;4934800;29;20054;-73
2021/01/27 02:14:53;;;;;;;2.67;1.90;;;;;;;22.53;37.30;93847.25;4935514;29;20441;-74
2021/01/27 02:17:44;;;;;;;3.03;2.22;;;;;;;22.46;37.35;93832.31;4934948;29;20028;-74
2021/01/27 02:20:45;;;;;;;3.22;2.30;;;;;;;22.53;37.32;93847.25;4933701;29;20154;-73
2021/01/27 02:23:38;;;;;;;2.72;1.80;;;;;;;22.52;37.47;93843.06;4923522;29;20102;-74
2021/01/27 02:26:28;;;;;;;2.72;1.95;;;;;;;22.52;37.41;93848.50;4933834;29;20497;-74
2021/01/27 02:29:15;;;;;;;2.90;1.95;;;;;;;22.49;37.41;93841.41;4934948;29;20032;-74
2021/01/27 02:32:02;;;;;;;2.97;2.30;;;;;;;22.47;37.14;93846.66;4934824;29;20040;-74
2021/01/27 02:34:49;;;;;;;2.72;1.90;;;;;;;22.42;37.25;93850.25;4917856;29;20074;-73
2021/01/27 02:37:16;;;;;;;2.67;1.95;;;;;;;22.34;37.59;93851.44;4934602;29;20043;-74
2021/01/27 02:39:45;;;;;;;2.28;1.90;;;;;;;22.25;37.54;93855.31;4933605;29;20548;-73
2021/01/27 02:42:21;;;;;;;2.90;2.10;;;;;;;22.23;37.64;93857.84;4933127;29;20121;-72
2021/01/27 02:44:58;;;;;;;2.83;2.10;;;;;;;22.25;37.67;93870.91;4917898;29;20106;-74
2021/01/27 02:47:29;;;;;;;3.25;2.05;;;;;;;22.25;37.19;93870.91;4918565;29;20036;-74
2021/01/27 02:49:59;;;;;;;2.25;1.85;;;;;;;22.31;37.64;93880.41;4934128;29;20038;-73
2021/01/27 02:52:28;;;;;;;2.13;1.85;;;;;;;22.36;37.54;93882.28;4934614;29;20505;-74
2021/01/27 02:54:59;;;;;;;2.72;1.90;;;;;;;22.35;37.53;93886.25;4916726;29;20039;-74
2021/01/27 02:57:25;;;;;;;;;;;;;;;22.38;37.53;93885.19;4934928;29;20036;-74
2021/01/27 02:59:53;;;;;;;2.45;1.85;;;;;;;22.39;37.60;93875.78;4933983;29;19911;-73
2021/01/27 03:02:23;;;;;;;2.55;2.10;;;;;;;22.33;37.27;93872.47;4917420;29;20556;-74
2021/01/27 03:05:06;;;;;;;2.85;2.00;;;;;;;22.42;37.24;93882.88;4917641;29;20056;-74
2021/01/27 03:07:31;;;;;;;2.60;1.85;;;;;;;22.44;37.59;93883.06;4932913;29;20032;-74
2021/01/27 03:10:00;;;;;;;2.80;2.20;;;;;;;22.43;37.30;93887.03;4917291;29;20483;-74
2021/01/27 03:12:25;;;;;;;2.65;2.00;;;;;;;22.43;37.30;93887.03;4933131;29;20433;-74
2021/01/27 03:14:51;;;;;;;3.05;2.13;;;;;;;22.42;37.14;93889.03;4932692;29;20043;-74
2021/01/27 03:17:18;;;;;;;2.42;1.88;;;;;;;22.40;37.40;93892.81;4933989;29;20050;-74
2021/01/27 03:20:04;;;;;;;2.50;1.90;;;;;;;22.33;37.56;93896.94;4932611;29;20044;-74
2021/01/27 03:22:33;;;;;;;3.20;2.03;;;;;;;22.20;37.51;93902.38;4932793;29;20031;-74
2021/01/27 03:25:06;;;;;;;3.40;2.03;;;;;;;22.23;37.50;93897.91;4932566;29;20039;-74
2021/01/27 03:27:35;;;;;;;2.53;2.08;;;;;;;22.21;37.45;93887.56;4932535;29;20035;-74
2021/01/27 03:30:00;;;;;;;2.80;2.10;;;;;;;22.28;37.39;93897.78;4932697;29;20031;-74
2021/01/27 03:32:48;;;;;;;3.45;2.30;;;;;;;22.34;37.28;93898.38;4933906;29;20032;-74
2021/01/27 03:35:32;;;;;;;2.92;2.00;;;;;;;22.37;37.51;93902.75;4932589;29;20032;-74
2021/01/27 03:37:59;;;;;;;2.40;1.85;;;;;;;22.37;37.43;93910.94;4932738;29;20031;-74
2021/01/27 03:40:25;;;;;;;2.45;2.00;;;;;;;22.36;37.54;93916.88;4932409;29;20025;-73
2021/01/27 03:42:59;;;;;;;2.58;1.88;;;;;;;22.38;37.51;93917.84;4932618;29;20523;-74
2021/01/27 03:45:26;;;;;;;2.55;2.00;;;;;;;22.36;37.31;93909.47;4933502;29;20028;-74
2021/01/27 03:47:54;;;;;;;2.67;1.90;;;;;;;22.35;37.17;93918.88;4916627;29;20472;-74
2021/01/27 03:50:21;;;;;;;2.92;2.20;;;;;;;22.36;37.23;93925.81;4933167;29;20027;-73
2021/01/27 03:52:52;;;;;;;2.33;1.90;;;;;;;22.38;37.29;93923.28;4932144;29;20148;-74
2021/01/27 03:55:31;;;;;;;1.90;1.60;;;;;;;22.34;37.15;93922.84;4933131;29;20027;-74
2021/01/27 03:58:01;;;;;;;2.35;1.77;;;;;;;22.26;37.25;93922.06;4923765;29;20389;-72
2021/01/27 04:00:28;;;;;;;2.50;2.00;;;;;;;22.19;37.70;93922.66;4952774;29;20029;-74
2021/01/27 04:03:06;;;;;;;2.97;2.25;;;;;;;22.11;37.46;93921.84;4945627;29;20298;-74
2021/01/27 04:05:32;;;;;;;2.45;1.80;;;;;;;22.09;37.66;93929.81;4947259;28;20023;-74
2021/01/27 04:07:57;;;;;;;2.75;2.00;;;;;;;22.12;37.51;93920.63;4933070;29;20043;-74
2021/01/27 04:10:23;;;;;;;2.42;1.70;;;;;;;22.13;37.47;93935.66;4933360;29;20036;-74
2021/01/27 04:12:48;;;;;;;3.15;2.15;;;;;;;22.19;37.35;93933.53;4933044;29;20031;-74
2021/01/27 04:15:14;;;;;;;2.90;1.92;;;;;;;22.24;37.42;93930.03;4932803;29;20159;-74
2021/01/27 04:17:39;;;;;;;2.70;2.20;;;;;;;22.27;37.24;93928.97;4932871;29;20019;-74
2021/01/27 04:20:05;;;;;;;3.17;2.25;;;;;;;22.27;37.33;93928.97;4932523;29;20589;-74
2021/01/27 04:22:31;;;;;;;2.53;2.03;;;;;;;22.21;37.27;93920.19;4932985;28;20031;-74
2021/01/27 04:24:56;;;;;;;3.67;2.40;;;;;;;22.30;37.28;93944.22;4947503;28;20035;-74
2021/01/27 04:27:23;;;;;;;2.42;1.85;;;;;;;22.30;37.20;93927.91;4932835;29;20147;-74
2021/01/27 04:29:48;;;;;;;2.70;1.90;;;;;;;22.32;37.23;93941.69;4947294;29;20047;-74
2021/01/27 04:32:14;;;;;;;2.88;1.98;;;;;;;22.30;37.17;93943.47;4932430;29;20126;-74
2021/01/27 04:34:39;;;;;;;2.47;2.00;;;;;;;22.33;37.17;93937.75;4932634;29;20027;-74
2021/01/27 04:37:05;;;;;;;2.20;1.85;;;;;;;22.27;37.33;93928.22;4932883;29;20027;-74
2021/01/27 04:39:30;;;;;;;2.53;1.75;;;;;;;22.23;37.25;93934.00;4931367;29;20038;-74
2021/01/27 04:41:56;;;;;;;2.63;1.83;;;;;;;22.14;37.25;93942.56;4932581;29;20027;-74
2021/01/27 04:44:21;;;;;;;2.17;1.70;;;;;;;22.12;37.41;93947.81;4932689;29;20032;-74
2021/01/27 04:47:00;;;;;;;2.05;1.65;;;;;;;22.13;37.33;93935.66;4931074;29;20035;-74
2021/01/27 04:49:39;;;;;;;2.85;2.00;;;;;;;22.19;37.34;93944.41;4932628;29;20425;-74
2021/01/27 04:52:31;;;;;;;2.40;1.90;;;;;;;22.24;37.37;93951.03;4915869;29;20023;-74
2021/01/27 04:55:06;;;;;;;2.58;1.80;;;;;;;22.24;37.28;93951.78;4931347;29;20456;-73
2021/01/27 04:58:05;;;;;;;2.25;1.80;;;;;;;22.27;37.21;93956.16;4930950;29;20099;-74
2021/01/27 05:01:08;;;;;;;2.78;2.25;;;;;;;22.30;37.21;93960.53;4932006;29;20506;-74
2021/01/27 05:03:36;;;;;;;2.35;1.80;;;;;;;22.32;37.23;93952.59;4928748;29;20055;-74
2021/01/27 05:06:03;;;;;;;2.95;1.90;;;;;;;22.34;37.15;93955.50;4941495;29;20037;-74
2021/01/27 05:08:40;;;;;;;2.42;1.98;;;;;;;22.29;36.86;93948.19;4918412;29;20068;-74
2021/01/27 05:11:07;;;;;;;2.83;1.85;;;;;;;22.38;37.18;93961.34;4930377;29;20417;-75
2021/01/27 05:13:33;;;;;;;2.38;1.80;;;;;;;22.36;37.25;93963.88;4882864;28;20060;-72
2021/01/27 05:16:18;;;;;;;2.55;1.90;;;;;;;22.27;37.41;93950.72;4965441;28;20535;-74
2021/01/27 05:18:43;;;;;;;2.22;1.80;;;;;;;22.32;37.28;93962.75;4946314;28;20043;-74
2021/01/27 05:21:31;;;;;;;2.22;1.70;;;;;;;22.28;37.74;93968.47;4949148;28;20019;-72
2021/01/27 05:23:57;;;;;;;2.42;2.10;;;;;;;22.31;37.50;93967.44;4948497;29;20157;-72
2021/01/27 05:26:24;;;;;;;2.30;1.83;;;;;;;22.36;37.48;93974.00;4950686;28;20031;-73
2021/01/27 05:29:05;;;;;;;2.97;2.10;;;;;;;22.46;37.08;93967.59;4948461;28;20031;-72
2021/01/27 05:32:15;;;;;;;2.72;1.98;;;;;;;22.60;36.79;93971.72;4951164;28;20127;-73
2021/01/27 05:34:42;;;;;;;2.58;1.90;;;;;;;22.72;36.68;93978.38;4948585;28;20061;-75
2021/01/27 05:37:12;;;;;;;2.55;1.90;;;;;;;22.83;36.53;93986.31;4973559;28;20109;-75
2021/01/27 05:39:38;;;;;;;2.70;1.77;;;;;;;22.78;36.77;93970.81;4950982;28;20186;-75
2021/01/27 05:42:28;;;;;;;2.40;1.70;;;;;;;22.99;36.23;93997.56;4964657;28;20500;-75
2021/01/27 05:44:55;;;;;;;;;;;;;;;23.01;36.37;94003.19;4957221;28;20034;-74
2021/01/27 05:47:35;;;;;;;2.95;1.90;;;;;;;23.12;36.42;94000.25;4950994;28;19910;-76
2021/01/27 05:50:32;;;;;;;2.25;1.63;;;;;;;23.22;36.31;94009.38;4950057;28;20567;-75
2021/01/27 05:53:21;;;;;;;2.97;1.90;;;;;;;23.30;35.89;94004.72;4965513;28;20434;-75
2021/01/27 05:56:03;;;;;;;2.33;1.83;;;;;;;23.36;35.75;93997.16;4953828;28;20102;-78
2021/01/27 05:58:30;;;;;;;2.53;1.70;;;;;;;23.44;35.72;93995.22;4954735;28;20123;-78
2021/01/27 06:01:14;;;;;;;2.65;1.70;;;;;;;23.56;35.67;94010.03;4953971;28;20669;-75
2021/01/27 06:03:57;;;;;;;2.40;1.60;;;;;;;23.63;35.52;94009.34;4955428;28;20039;-74
2021/01/27 06:06:22;;;;;;;2.35;1.92;;;;;;;23.70;35.02;94008.69;4955099;28;20031;-73
2021/01/27 06:08:52;;;;;;;2.28;1.90;;;;;;;23.79;35.27;94010.94;4954304;28;20519;-76
2021/01/27 06:11:18;;;;;;;24.83;3.22;;;;;;;23.71;34.84;94010.16;4949466;28;20167;-76
2021/01/27 06:13:44;;;;;;;2.60;1.70;;;;;;;23.62;35.26;93991.53;4949837;28;20039;-75
2021/01/27 06:16:20;;;;;;;2.50;1.70;;;;;;;23.67;35.08;93993.41;4956981;28;20046;-78
2021/01/27 06:18:45;;;;;;;2.33;1.67;;;;;;;23.77;35.43;93997.13;4951466;28;20449;-75
2021/01/27 06:21:33;;;;;;;2.20;1.65;;;;;;;23.93;34.77;94005.59;4956159;28;20171;-75
2021/01/27 06:24:20;;;;;;;2.88;1.90;;;;;;;23.96;34.96;93993.59;4948834;28;20023;-73
2021/01/27 06:26:58;;;;;;;2.60;2.10;;;;;;;24.20;35.02;94006.81;4959425;28;20500;-73
2021/01/27 06:29:52;;;;;;;2.42;1.90;;;;;;;24.25;34.44;94008.66;4950226;28;20034;-75
2021/01/27 06:32:36;;;;;;;2.70;2.22;;;;;;;24.21;34.62;94008.25;4934335;29;20544;-74
2021/01/27 06:35:07;;;;;;;1.90;1.52;;;;;;;24.23;34.76;94016.66;4951462;29;20111;-75
2021/01/27 06:37:58;;;;;;;2.90;1.70;;;;;;;24.26;34.34;94010.13;4951712;29;20548;-72
2021/01/27 06:40:41;;;;;;;2.20;1.63;;;;;;;24.28;34.65;94002.13;4953590;29;20019;-72
2021/01/27 06:43:25;;;;;;;2.83;1.83;;;;;;;24.33;34.68;93998.53;4952366;28;20030;-70
2021/01/27 06:46:17;;;;;;;2.15;1.67;;;;;;;24.41;34.27;94010.22;4952745;28;20023;-73
2021/01/27 06:49:09;;;;;;;2.67;1.85;;;;;;;24.35;34.27;93990.53;4951795;28;20122;-76
2021/01/27 06:51:52;;;;;;;3.20;2.30;;;;;;;24.55;34.35;94003.34;4965679;28;20031;-72
2021/01/27 06:54:41;;;;;;;4.15;1.80;;;;;;;24.56;34.06;94010.28;4953074;28;20094;-75
2021/01/27 06:57:09;;;;;;;2.60;1.85;;;;;;;24.55;34.18;93998.59;4936076;28;20075;-76
2021/01/27 06:59:56;;;;;;;2.83;2.05;;;;;;;24.58;33.77;94002.28;4952988;28;20081;-75
2021/01/27 07:02:39;;;;;;;2.58;1.73;;;;;;;24.68;33.83;94000.47;4947232;28;20037;-73
2021/01/27 07:05:40;;;;;;;2.42;1.60;;;;;;;24.68;34.20;93995.00;4952173;28;20039;-74
2021/01/27 07:08:15;;;;;;;3.33;1.88;;;;;;;24.71;33.96;94000.13;4967567;28;20035;-73
2021/01/27 07:10:57;;;;;;;2.90;1.77;;;;;;;24.64;33.64;94011.75;4946046;29;20034;-72
2021/01/27 07:13:28;;;;;;;3.92;1.83;;;;;;;24.65;34.14;94017.94;4963441;28;20135;-73
2021/01/27 07:16:03;;;;;;;2.88;2.00;;;;;;;24.64;33.67;94016.47;4953070;28;20082;-74
2021/01/27 07:18:42;;;;;;;2.65;1.58;;;;;;;24.64;33.56;94016.47;4965480;28;20035;-73
2021/01/27 07:21:19;;;;;;;2.58;1.60;;;;;;;24.67;33.94;94023.59;4950555;28;20488;-72
2021/01/27 07:23:59;;;;;;;2.15;1.58;;;;;;;24.67;33.75;94020.88;4950608;28;20039;-74
2021/01/27 07:26:28;;;;;;;2.25;1.60;;;;;;;24.77;33.30;94027.25;4953985;28;20094;-73
2021/01/27 07:29:05;;;;;;;2.47;1.75;;;;;;;24.80;33.98;94034.34;4950921;28;20019;-73
2021/01/27 07:31:46;;;;;;;2.35;1.75;;;;;;;24.91;33.74;94035.47;4962869;28;20039;-73
2021/01/27 07:34:30;;;;;;;2.72;1.85;;;;;;;24.87;34.29;94035.13;4964811;28;20035;-73
2021/01/27 07:37:17;;;;;;;2.45;1.90;;;;;;;24.98;34.02;94040.25;4955653;28;20071;-73
2021/01/27 07:40:11;;;;;;;3.47;1.90;;;;;;;24.98;34.55;94040.25;4951024;28;20027;-73
2021/01/27 07:42:55;;;;;;;2.47;1.70;;;;;;;24.96;34.44;94026.41;4953595;28;20369;-73
2021/01/27 07:45:22;;;;;;;2.42;1.63;;;;;;;24.98;34.75;94010.19;4954804;28;20051;-75
2021/01/27 07:48:01;;;;;;;4.20;2.35;;;;;;;25.03;35.23;94025.72;4951627;28;20035;-74
2021/01/27 07:50:27;;;;;;;3.30;1.90;;;;;;;24.88;35.61;94011.97;4949629;28;20031;-76
2021/01/27 07:53:06;;;;;;;3.22;2.00;;;;;;;24.86;35.78;94022.72;4949211;29;20106;-76
2021/01/27 07:55:32;;;;;;;4.55;1.90;;;;;;;24.90;35.43;94034.03;4948290;29;20023;-75
2021/01/27 07:57:58;;;;;;;2.40;1.73;;;;;;;24.87;34.67;94029.66;4951540;29;20036;-76
2021/01/27 08:00:31;;;;;;;4.07;2.20;;;;;;;24.88;35.11;94035.84;4966504;28;20062;-75
2021/01/27 08:03:28;;;;;;;4.15;1.95;;;;;;;24.72;34.94;94006.31;4949969;28;20131;-74
2021/01/27 08:06:13;;;;;;;2.38;2.00;;;;;;;24.87;34.38;94021.47;4932645;28;20051;-74
2021/01/27 08:08:53;;;;;;;3.00;1.70;;;;;;;24.87;34.30;94018.75;4948430;28;20492;-74
2021/01/27 08:11:39;;;;;;;3.47;2.00;;;;;;;24.96;33.96;94020.94;4957057;28;20045;-75
2021/01/27 08:14:05;;;;;;;2.95;1.90;;;;;;;24.83;33.64;94021.09;4949619;28;20034;-75
2021/01/27 08:16:33;;;;;;;2.70;1.70;;;;;;;24.83;33.83;94034.75;4956320;28;20046;-75
2021/01/27 08:19:17;;;;;;;3.00;2.10;;;;;;;24.81;34.25;94036.53;4951523;28;20031;-74
2021/01/27 08:21:46;;;;;;;3.42;2.00;;;;;;;24.72;34.26;94037.06;4952343;28;20050;-72
2021/01/27 08:24:36;;;;;;;2.80;1.90;;;;;;;24.68;34.59;94033.22;4951597;28;20441;-72
2021/01/27 08:27:11;;;;;;;3.45;1.95;;;;;;;24.64;34.53;94033.59;4956621;28;20046;-72
2021/01/27 08:29:55;;;;;;;4.45;1.80;;;;;;;24.61;34.71;94033.94;4950668;28;20090;-72
2021/01/27 08:32:32;;;;;;;2.80;1.98;;;;;;;24.55;34.49;94036.09;4957374;28;20026;-72
2021/01/27 08:35:02;;;;;;;3.25;2.13;;;;;;;24.53;34.35;94030.47;4952428;28;20115;-72
2021/01/27 08:37:29;;;;;;;;;;;;;;;24.49;34.54;94032.81;4957919;28;20570;-72
2021/01/27 08:40:28;;;;;;;2.55;1.65;;;;;;;24.43;34.54;94032.22;4951909;28;19980;-72
2021/01/27 08:42:54;;;;;;;2.75;1.80;;;;;;;24.30;34.38;94021.41;4957958;28;20463;-72
2021/01/27 08:45:23;;;;;;;3.25;1.90;;;;;;;24.34;34.41;94038.19;4952204;28;20026;-72
2021/01/27 08:47:49;;;;;;;2.63;2.05;;;;;;;24.29;34.16;94030.13;4954645;28;20035;-71
2021/01/27 08:50:37;;;;;;;2.70;1.90;;;;;;;24.10;34.63;94029.69;4968072;28;20026;-72
2021/01/27 08:53:12;;;;;;;2.75;2.22;;;;;;;23.92;34.77;94025.22;4948645;28;20517;-72
2021/01/27 08:55:44;;;;;;;3.42;1.90;;;;;;;23.80;35.15;94034.22;4948670;28;20030;-72
2021/01/27 08:58:27;;;;;;;2.75;1.90;;;;;;;23.55;35.05;94009.28;4948276;29;20114;-72
2021/01/27 09:00:57;;;;;;;2.80;2.00;;;;;;;23.64;35.13;94038.81;4949901;28;20030;-72
2021/01/27 09:03:51;;;;;;;;;;;;;;;23.72;34.69;94034.16;4962796;28;20050;-73
2021/01/27 09:06:41;;;;;;;2.83;1.80;;;;;;;23.79;34.63;94038.19;4948644;29;20323;-72
2021/01/27 09:09:30;;;;;;;2.60;1.75;;;;;;;23.75;34.54;94037.81;4940418;29;20074;-72
2021/01/27 09:11:58;;;;;;;2.80;1.85;;;;;;;23.72;34.92;94038.88;4957076;28;20038;-72
2021/01/27 09:14:23;;;;;;;2.60;1.85;;;;;;;23.75;34.79;94043.25;4952670;29;20057;-72
2021/01/27 09:16:49;;;;;;;2.35;1.85;;;;;;;23.74;34.36;94047.25;4951153;28;20027;-72
2021/01/27 09:19:18;;;;;;;2.50;1.60;;;;;;;23.70;34.11;94046.88;4965947;28;20023;-72
2021/01/27 09:21:52;;;;;;;2.97;1.90;;;;;;;23.72;34.36;94038.88;4965970;28;20127;-72
2021/01/27 09:24:24;;;;;;;2.53;1.80;;;;;;;23.77;34.23;94057.09;4949926;28;20033;-72
2021/01/27 09:26:50;;;;;;;2.90;2.10;;;;;;;23.76;34.07;94061.09;4950078;29;20023;-72
2021/01/27 09:29:19;;;;;;;3.00;2.05;;;;;;;23.71;34.39;94059.25;4963819;28;20500;-72
2021/01/27 09:31:44;;;;;;;2.97;1.90;;;;;;;23.66;34.29;94076.44;4948999;28;20097;-72
2021/01/27 09:34:20;;;;;;;2.92;2.00;;;;;;;23.58;34.26;94067.44;4950099;28;20023;-72
2021/01/27 09:36:46;;;;;;;2.40;1.70;;;;;;;23.48;34.70;94053.56;4914809;28;20551;-72
2021/01/27 09:39:11;;;;;;;2.80;1.80;;;;;;;23.53;34.73;94076.50;4932655;29;20032;-72
2021/01/27 09:41:37;;;;;;;2.67;1.92;;;;;;;23.51;34.98;94079.00;4950924;29;20023;-72
2021/01/27 09:44:03;;;;;;;2.22;1.67;;;;;;;23.48;34.65;94090.97;4933820;29;20027;-71
2021/01/27 09:46:36;;;;;;;2.47;1.80;;;;;;;23.49;35.10;94092.44;4949871;28;20027;-71
2021/01/27 09:49:06;;;;;;;2.60;1.85;;;;;;;23.42;34.88;94076.75;4950654;28;20042;-72
2021/01/27 09:51:32;;;;;;;2.17;1.70;;;;;;;23.40;34.85;94069.09;4948543;28;20019;-72
2021/01/27 09:54:01;;;;;;;2.45;1.65;;;;;;;23.51;34.78;94084.47;4945093;28;20162;-72
2021/01/27 09:56:27;;;;;;;2.38;1.73;;;;;;;23.32;34.80;94062.16;4950685;28;20460;-72
2021/01/27 09:58:52;;;;;;;2.97;1.70;;;;;;;23.41;34.90;94086.22;4952704;28;20034;-72
2021/01/27 10:01:19;;;;;;;2.35;1.60;;;;;;;23.37;35.00;94091.25;4956450;28;20489;-72
2021/01/27 10:03:52;;;;;;;3.20;2.08;;;;;;;23.34;34.64;94080.69;4944831;28;20056;-77
2021/01/27 10:06:37;;;;;;;3.30;1.80;;;;;;;23.32;35.11;94078.50;4952780;28;20023;-75
2021/01/27 10:09:25;;;;;;;2.85;1.85;;;;;;;23.28;35.49;94072.63;4952854;29;20029;-77
2021/01/27 10:12:01;;;;;;;2.22;1.55;;;;;;;23.29;35.64;94068.66;4955932;28;20412;-76
2021/01/27 10:14:28;;;;;;;2.95;2.00;;;;;;;23.31;35.25;94071.56;4954167;28;20421;-75
2021/01/27 10:16:58;;;;;;;3.03;1.70;;;;;;;23.33;35.09;94052.69;4952052;28;20106;-72
2021/01/27 10:19:34;;;;;;;2.90;1.70;;;;;;;23.43;35.31;94067.31;4967390;28;20038;-72
2021/01/27 10:22:01;;;;;;;2.50;1.60;;;;;;;23.44;35.56;94074.25;4966714;28;20050;-74
2021/01/27 10:24:46;;;;;;;2.65;1.85;;;;;;;23.51;34.97;94073.56;4967149;28;20150;-72
2021/01/27 10:27:51;;;;;;;2.67;1.83;;;;;;;23.58;35.35;94081.09;4967877;28;20488;-72
2021/01/27 10:30:16;;;;;;;2.83;1.90;;;;;;;23.66;34.91;94068.25;4892564;29;20071;-72
2021/01/27 10:32:43;;;;;;;4.05;2.28;;;;;;;23.69;34.69;94062.50;4939987;28;20070;-71
2021/01/27 10:35:26;;;;;;;2.80;1.75;;;;;;;23.71;34.88;94059.25;4953511;28;20426;-71
2021/01/27 10:38:14;;;;;;;2.63;2.00;;;;;;;23.73;34.72;94062.16;4952297;28;20420;-72
2021/01/27 10:40:40;;;;;;;3.13;1.58;;;;;;;23.77;34.43;94062.56;4949632;28;20050;-72
2021/01/27 10:43:11;;;;;;;3.00;2.08;;;;;;;23.85;34.58;94057.88;4963178;28;20047;-74
2021/01/27 10:45:41;;;;;;;4.53;3.65;;;;;;;23.21;25.33;94062.38;4957129;28;20039;-71
2021/01/27 10:48:09;;;;;;;4.10;3.35;;;;;;;21.20;28.74;94058.91;4958081;28;20037;-73
2021/01/27 10:50:36;;;;;;;3.95;2.67;;;;;;;21.89;32.25;94067.63;4953750;28;20039;-73
2021/01/27 10:53:03;;;;;;;3.70;2.20;;;;;;;22.53;33.20;94070.34;4960219;28;20034;-74
2021/01/27 10:55:33;;;;;;;5.47;2.35;;;;;;;23.00;33.36;94069.84;4949054;28;20782;-75
2021/01/27 10:58:06;;;;;;;5.00;2.42;;;;;;;23.39;32.40;94062.22;4967975;28;20484;-73
2021/01/27 11:00:32;;;;;;;5.18;2.17;;;;;;;23.60;32.52;94070.38;4955342;28;20033;-73
2021/01/27 11:02:57;;;;;;;4.47;2.13;;;;;;;23.79;32.88;94062.75;4956616;28;20039;-74
2021/01/27 11:05:23;;;;;;;5.07;2.20;;;;;;;23.86;32.88;94066.25;4955241;28;20413;-73
2021/01/27 11:07:48;;;;;;;3.22;2.03;;;;;;;23.87;33.21;94056.81;4958829;28;20031;-73
2021/01/27 11:10:14;;;;;;;3.05;1.83;;;;;;;24.04;33.09;94070.00;4954306;28;20015;-74
2021/01/27 11:12:40;;;;;;;8.60;2.58;;;;;;;24.07;33.35;94064.19;4950463;29;20082;-74
2021/01/27 11:15:07;;;;;;;4.47;2.20;;;;;;;24.20;33.27;94072.28;4951241;28;20030;-82
2021/01/27 11:17:33;;;;;;;3.92;1.90;;;;;;;24.27;33.28;94073.59;4952868;28;20046;-75
2021/01/27 11:19:58;;;;;;;3.85;2.00;;;;;;;24.34;33.32;94076.41;4950731;28;20035;-73
2021/01/27 11:22:24;;;;;;;5.10;1.98;;;;;;;24.41;33.02;94081.91;4950463;29;20039;-75
2021/01/27 11:24:49;;;;;;;3.53;1.92;;;;;;;24.41;33.09;94065.53;4952096;28;20484;-75
2021/01/27 11:27:14;;;;;;;4.47;2.03;;;;;;;24.44;33.05;94052.81;4935492;29;20488;-75
2021/01/27 11:29:40;;;;;;;3.35;1.85;;;;;;;24.54;33.29;94072.84;4951505;28;20035;-77
2021/01/27 11:32:06;;;;;;;3.30;2.00;;;;;;;24.56;33.05;94064.88;4951842;28;20023;-76
2021/01/27 11:34:31;;;;;;;4.00;2.15;;;;;;;24.64;33.25;94054.72;4953900;28;20492;-77
2021/01/27 11:36:56;;;;;;;3.20;1.90;;;;;;;24.65;33.02;94045.97;4961099;28;20023;-77
2021/01/27 11:39:22;;;;;;;3.75;2.20;;;;;;;24.81;33.17;94052.22;4955989;28;20027;-75
2021/01/27 11:41:47;;;;;;;3.13;1.88;;;;;;;24.83;33.01;94056.59;4952159;28;20031;-77
2021/01/27 11:44:13;;;;;;;3.83;2.05;;;;;;;24.84;32.72;94063.53;4951380;28;20087;-76
2021/01/27 11:46:38;;;;;;;3.75;1.90;;;;;;;24.89;33.10;94059.88;4954879;28;20083;-78
2021/01/27 11:49:05;;;;;;;2.80;1.90;;;;;;;24.90;32.41;94061.34;4953233;28;20027;-78
2021/01/27 11:51:30;;;;;;;3.88;2.00;;;;;;;24.95;32.95;94044.06;4953210;28;20039;-79
2021/01/27 11:53:55;;;;;;;2.67;1.80;;;;;;;25.07;32.33;94047.94;4950224;28;20038;-77
2021/01/27 11:56:21;;;;;;;3.00;1.80;;;;;;;25.10;32.57;94046.84;4954739;28;20015;-72
2021/01/27 11:58:47;;;;;;;3.35;1.85;;;;;;;25.07;32.21;94053.41;4953913;28;20041;-71
2021/01/27 12:01:12;;;;;;;5.03;2.20;;;;;;;25.08;32.46;94054.88;4953050;28;20027;-71